sensor_id;sensor_type;location;lat;lon;timestamp;temperature;humidity
5027;DHT22;2532;52.480;13.354;2023-12-14T00:01:26;6.20;99.90
5027;DHT22;2532;52.480;13.354;2023-12-14T00:03:53;6.30;99.90
5027;DHT22;2532;52.480;13.354;2023-12-14T00:06:20;6.30;99.90
5027;DHT22;2532;52.480;13.354;2023-12-14T00:08:49;6.30;99.90
5027;DHT22;2532;52.480;13.354;2023-12-14T00:11:16;6.30;99.90
5027;DHT22;2532;52.480;13.354;2023-12-14T00:13:45;6.30;99.90
5027;DHT22;2532;52.480;13.354;2023-12-14T00:16:12;6.30;99.90
5027;DHT22;2532;52.480;13.354;2023-12-14T00:18:39;6.30;99.90
5027;DHT22;2532;52.480;13.354;2023-12-14T00:21:09;6.30;99.90
5027;DHT22;2532;52.480;13.354;2023-12-14T00:23:38;6.20;99.90
5027;DHT22;2532;52.480;13.354;2023-12-14T00:26:05;6.20;99.90
5027;DHT22;2532;52.480;13.354;2023-12-14T00:28:35;6.20;99.90
5027;DHT22;2532;52.480;13.354;2023-12-14T00:31:04;6.20;99.90
5027;DHT22;2532;52.480;13.354;2023-12-14T00:33:33;6.20;99.90
5027;DHT22;2532;52.480;13.354;2023-12-14T00:36:00;6.10;99.90
5027;DHT22;2532;52.480;13.354;2023-12-14T00:38:27;6.10;99.90
5027;DHT22;2532;52.480;13.354;2023-12-14T00:40:54;6.10;99.90
5027;DHT22;2532;52.480;13.354;2023-12-14T00:43:22;6.10;99.90
5027;DHT22;2532;52.480;13.354;2023-12-14T00:45:49;6.10;99.90
5027;DHT22;2532;52.480;13.354;2023-12-14T00:48:19;6.00;99.90
5027;DHT22;2532;52.480;13.354;2023-12-14T00:50:46;6.00;99.90
5027;DHT22;2532;52.480;13.354;2023-12-14T00:53:13;5.90;99.90
5027;DHT22;2532;52.480;13.354;2023-12-14T00:55:40;5.90;99.90
5027;DHT22;2532;52.480;13.354;2023-12-14T00:58:07;5.90;99.90
5027;DHT22;2532;52.480;13.354;2023-12-14T01:00:34;5.90;99.90
5027;DHT22;2532;52.480;13.354;2023-12-14T01:03:01;5.90;99.90
5027;DHT22;2532;52.480;13.354;2023-12-14T01:05:30;5.90;99.90
5027;DHT22;2532;52.480;13.354;2023-12-14T01:07:58;5.80;99.90
5027;DHT22;2532;52.480;13.354;2023-12-14T01:10:27;5.80;99.90
5027;DHT22;2532;52.480;13.354;2023-12-14T01:12:54;5.80;99.90
5027;DHT22;2532;52.480;13.354;2023-12-14T01:15:21;5.80;99.90
5027;DHT22;2532;52.480;13.354;2023-12-14T01:17:48;5.80;99.90
5027;DHT22;2532;52.480;13.354;2023-12-14T01:20:15;5.80;99.90
5027;DHT22;2532;52.480;13.354;2023-12-14T01:22:43;5.80;99.90
5027;DHT22;2532;52.480;13.354;2023-12-14T01:25:10;5.80;99.90
5027;DHT22;2532;52.480;13.354;2023-12-14T01:27:38;5.70;99.90
5027;DHT22;2532;52.480;13.354;2023-12-14T01:30:06;5.70;99.90
5027;DHT22;2532;52.480;13.354;2023-12-14T01:32:33;5.70;99.90
5027;DHT22;2532;52.480;13.354;2023-12-14T01:35:00;5.60;99.90
5027;DHT22;2532;52.480;13.354;2023-12-14T01:37:27;5.60;99.90
5027;DHT22;2532;52.480;13.354;2023-12-14T01:39:55;5.60;99.90
5027;DHT22;2532;52.480;13.354;2023-12-14T01:42:23;5.60;99.90
5027;DHT22;2532;52.480;13.354;2023-12-14T01:44:50;5.60;99.90
5027;DHT22;2532;52.480;13.354;2023-12-14T01:47:17;5.60;99.90
5027;DHT22;2532;52.480;13.354;2023-12-14T01:49:44;5.60;99.90
5027;DHT22;2532;52.480;13.354;2023-12-14T01:52:11;5.60;99.90
5027;DHT22;2532;52.480;13.354;2023-12-14T01:54:38;5.60;99.90
5027;DHT22;2532;52.480;13.354;2023-12-14T01:57:06;5.60;99.90
5027;DHT22;2532;52.480;13.354;2023-12-14T01:59:33;5.60;99.90
5027;DHT22;2532;52.480;13.354;2023-12-14T02:02:00;5.50;99.90
5027;DHT22;2532;52.480;13.354;2023-12-14T02:04:28;5.50;99.90
5027;DHT22;2532;52.480;13.354;2023-12-14T02:06:56;5.50;99.90
5027;DHT22;2532;52.480;13.354;2023-12-14T02:09:23;5.50;99.90
5027;DHT22;2532;52.480;13.354;2023-12-14T02:11:50;5.50;99.90
5027;DHT22;2532;52.480;13.354;2023-12-14T02:14:21;5.40;99.90
5027;DHT22;2532;52.480;13.354;2023-12-14T02:16:48;5.50;99.90
5027;DHT22;2532;52.480;13.354;2023-12-14T02:19:17;5.30;99.90
5027;DHT22;2532;52.480;13.354;2023-12-14T02:21:46;5.30;99.90
5027;DHT22;2532;52.480;13.354;2023-12-14T02:24:14;5.30;99.90
5027;DHT22;2532;52.480;13.354;2023-12-14T02:26:41;5.30;99.90
5027;DHT22;2532;52.480;13.354;2023-12-14T02:29:08;5.30;99.90
5027;DHT22;2532;52.480;13.354;2023-12-14T02:31:35;5.30;99.90
5027;DHT22;2532;52.480;13.354;2023-12-14T02:34:02;5.30;99.90
5027;DHT22;2532;52.480;13.354;2023-12-14T02:36:29;5.40;99.90
5027;DHT22;2532;52.480;13.354;2023-12-14T02:38:56;5.40;99.90
5027;DHT22;2532;52.480;13.354;2023-12-14T02:41:25;5.40;99.90
5027;DHT22;2532;52.480;13.354;2023-12-14T02:43:52;5.40;99.90
5027;DHT22;2532;52.480;13.354;2023-12-14T02:46:18;5.40;99.90
5027;DHT22;2532;52.480;13.354;2023-12-14T02:48:45;5.40;99.90
5027;DHT22;2532;52.480;13.354;2023-12-14T02:51:13;5.30;99.90
5027;DHT22;2532;52.480;13.354;2023-12-14T02:53:41;5.30;99.90
5027;DHT22;2532;52.480;13.354;2023-12-14T02:56:09;5.30;99.90
5027;DHT22;2532;52.480;13.354;2023-12-14T02:58:38;5.30;99.90
5027;DHT22;2532;52.480;13.354;2023-12-14T03:01:08;5.30;99.90
5027;DHT22;2532;52.480;13.354;2023-12-14T03:03:38;5.30;99.90
5027;DHT22;2532;52.480;13.354;2023-12-14T03:06:08;5.30;99.90
5027;DHT22;2532;52.480;13.354;2023-12-14T03:08:35;5.30;99.90
5027;DHT22;2532;52.480;13.354;2023-12-14T03:11:02;5.30;99.90
5027;DHT22;2532;52.480;13.354;2023-12-14T03:13:29;5.30;99.90
5027;DHT22;2532;52.480;13.354;2023-12-14T03:16:00;5.30;99.90
5027;DHT22;2532;52.480;13.354;2023-12-14T03:18:27;5.30;99.90
5027;DHT22;2532;52.480;13.354;2023-12-14T03:20:54;5.30;99.90
5027;DHT22;2532;52.480;13.354;2023-12-14T03:23:21;5.30;99.90
5027;DHT22;2532;52.480;13.354;2023-12-14T03:25:50;5.40;99.90
5027;DHT22;2532;52.480;13.354;2023-12-14T03:28:17;5.30;99.90
5027;DHT22;2532;52.480;13.354;2023-12-14T03:30:44;5.40;99.90
5027;DHT22;2532;52.480;13.354;2023-12-14T03:33:12;5.40;99.90
5027;DHT22;2532;52.480;13.354;2023-12-14T03:35:39;5.30;99.90
5027;DHT22;2532;52.480;13.354;2023-12-14T03:38:07;5.30;99.90
5027;DHT22;2532;52.480;13.354;2023-12-14T03:40:56;5.30;99.90
5027;DHT22;2532;52.480;13.354;2023-12-14T03:43:22;5.30;99.90
5027;DHT22;2532;52.480;13.354;2023-12-14T03:45:50;5.20;99.90
5027;DHT22;2532;52.480;13.354;2023-12-14T03:48:18;5.20;99.90
5027;DHT22;2532;52.480;13.354;2023-12-14T03:50:45;5.20;99.90
5027;DHT22;2532;52.480;13.354;2023-12-14T03:53:12;5.20;99.90
5027;DHT22;2532;52.480;13.354;2023-12-14T03:55:39;5.20;99.90
5027;DHT22;2532;52.480;13.354;2023-12-14T03:58:06;5.20;99.90
5027;DHT22;2532;52.480;13.354;2023-12-14T04:00:33;5.30;99.90
5027;DHT22;2532;52.480;13.354;2023-12-14T04:02:59;5.20;99.90
5027;DHT22;2532;52.480;13.354;2023-12-14T04:05:28;5.20;99.90
5027;DHT22;2532;52.480;13.354;2023-12-14T04:07:54;5.20;99.90
5027;DHT22;2532;52.480;13.354;2023-12-14T04:10:21;5.20;99.90
5027;DHT22;2532;52.480;13.354;2023-12-14T04:12:48;5.10;99.90
5027;DHT22;2532;52.480;13.354;2023-12-14T04:15:15;5.10;99.90
5027;DHT22;2532;52.480;13.354;2023-12-14T04:17:43;5.10;99.90
5027;DHT22;2532;52.480;13.354;2023-12-14T04:20:10;5.10;99.90
5027;DHT22;2532;52.480;13.354;2023-12-14T04:22:43;5.20;99.90
5027;DHT22;2532;52.480;13.354;2023-12-14T04:25:10;5.20;99.90
5027;DHT22;2532;52.480;13.354;2023-12-14T04:27:37;5.30;99.90
5027;DHT22;2532;52.480;13.354;2023-12-14T04:30:05;5.20;99.90
5027;DHT22;2532;52.480;13.354;2023-12-14T04:32:36;5.20;99.90
5027;DHT22;2532;52.480;13.354;2023-12-14T04:35:03;5.20;99.90
5027;DHT22;2532;52.480;13.354;2023-12-14T04:37:30;5.30;99.90
5027;DHT22;2532;52.480;13.354;2023-12-14T04:40:01;5.20;99.90
5027;DHT22;2532;52.480;13.354;2023-12-14T04:42:29;5.30;99.90
5027;DHT22;2532;52.480;13.354;2023-12-14T04:44:56;5.30;99.90
5027;DHT22;2532;52.480;13.354;2023-12-14T04:47:23;5.30;99.90
5027;DHT22;2532;52.480;13.354;2023-12-14T04:49:50;5.20;99.90
5027;DHT22;2532;52.480;13.354;2023-12-14T04:52:19;5.20;99.90
5027;DHT22;2532;52.480;13.354;2023-12-14T04:54:48;5.20;99.90
5027;DHT22;2532;52.480;13.354;2023-12-14T04:57:16;5.20;99.90
5027;DHT22;2532;52.480;13.354;2023-12-14T04:59:43;5.30;99.90
5027;DHT22;2532;52.480;13.354;2023-12-14T05:02:10;5.30;99.90
5027;DHT22;2532;52.480;13.354;2023-12-14T05:04:37;5.40;99.90
5027;DHT22;2532;52.480;13.354;2023-12-14T05:07:06;5.40;99.90
5027;DHT22;2532;52.480;13.354;2023-12-14T05:09:33;5.40;99.90
5027;DHT22;2532;52.480;13.354;2023-12-14T05:12:00;5.50;99.90
5027;DHT22;2532;52.480;13.354;2023-12-14T05:14:28;5.50;99.90
5027;DHT22;2532;52.480;13.354;2023-12-14T05:16:57;5.50;99.90
5027;DHT22;2532;52.480;13.354;2023-12-14T05:19:25;5.50;99.90
5027;DHT22;2532;52.480;13.354;2023-12-14T05:21:52;5.50;99.90
5027;DHT22;2532;52.480;13.354;2023-12-14T05:24:20;5.50;99.90
5027;DHT22;2532;52.480;13.354;2023-12-14T05:26:47;5.50;99.90
5027;DHT22;2532;52.480;13.354;2023-12-14T05:29:14;5.50;99.90
5027;DHT22;2532;52.480;13.354;2023-12-14T05:31:44;5.50;99.90
5027;DHT22;2532;52.480;13.354;2023-12-14T05:34:11;5.50;99.90
5027;DHT22;2532;52.480;13.354;2023-12-14T05:36:38;5.60;99.90
5027;DHT22;2532;52.480;13.354;2023-12-14T05:39:05;5.50;99.90
5027;DHT22;2532;52.480;13.354;2023-12-14T05:41:31;5.50;99.90
5027;DHT22;2532;52.480;13.354;2023-12-14T05:43:58;5.50;99.90
5027;DHT22;2532;52.480;13.354;2023-12-14T05:46:28;5.50;99.90
5027;DHT22;2532;52.480;13.354;2023-12-14T05:48:56;5.50;99.90
5027;DHT22;2532;52.480;13.354;2023-12-14T05:51:28;5.50;99.90
5027;DHT22;2532;52.480;13.354;2023-12-14T05:53:55;5.50;99.90
5027;DHT22;2532;52.480;13.354;2023-12-14T05:56:22;5.50;99.90
5027;DHT22;2532;52.480;13.354;2023-12-14T05:58:52;5.50;99.90
5027;DHT22;2532;52.480;13.354;2023-12-14T06:01:19;5.50;99.90
5027;DHT22;2532;52.480;13.354;2023-12-14T06:03:46;5.50;99.90
5027;DHT22;2532;52.480;13.354;2023-12-14T06:06:14;5.60;99.90
5027;DHT22;2532;52.480;13.354;2023-12-14T06:08:44;5.60;99.90
5027;DHT22;2532;52.480;13.354;2023-12-14T06:11:11;5.50;99.90
5027;DHT22;2532;52.480;13.354;2023-12-14T06:13:38;5.50;99.90
5027;DHT22;2532;52.480;13.354;2023-12-14T06:16:08;5.60;99.90
5027;DHT22;2532;52.480;13.354;2023-12-14T06:18:39;5.60;99.90
5027;DHT22;2532;52.480;13.354;2023-12-14T06:21:07;5.50;99.90
5027;DHT22;2532;52.480;13.354;2023-12-14T06:23:36;5.50;99.90
5027;DHT22;2532;52.480;13.354;2023-12-14T06:26:03;5.60;99.90
5027;DHT22;2532;52.480;13.354;2023-12-14T06:28:30;5.60;99.90
5027;DHT22;2532;52.480;13.354;2023-12-14T06:31:00;5.50;99.90
5027;DHT22;2532;52.480;13.354;2023-12-14T06:33:27;5.60;99.90
5027;DHT22;2532;52.480;13.354;2023-12-14T06:35:54;5.50;99.90
5027;DHT22;2532;52.480;13.354;2023-12-14T06:38:21;5.60;99.90
5027;DHT22;2532;52.480;13.354;2023-12-14T06:40:50;5.60;99.90
5027;DHT22;2532;52.480;13.354;2023-12-14T06:43:16;5.60;99.90
5027;DHT22;2532;52.480;13.354;2023-12-14T06:45:43;5.60;99.90
5027;DHT22;2532;52.480;13.354;2023-12-14T06:48:10;5.60;99.90
5027;DHT22;2532;52.480;13.354;2023-12-14T06:50:36;5.60;99.90
5027;DHT22;2532;52.480;13.354;2023-12-14T06:53:03;5.70;99.90
5027;DHT22;2532;52.480;13.354;2023-12-14T06:55:30;5.70;99.90
5027;DHT22;2532;52.480;13.354;2023-12-14T06:57:58;5.70;99.90
5027;DHT22;2532;52.480;13.354;2023-12-14T07:00:28;5.80;99.90
5027;DHT22;2532;52.480;13.354;2023-12-14T07:02:55;5.70;99.90
5027;DHT22;2532;52.480;13.354;2023-12-14T07:05:22;5.80;99.90
5027;DHT22;2532;52.480;13.354;2023-12-14T07:07:49;5.80;99.90
5027;DHT22;2532;52.480;13.354;2023-12-14T07:10:16;5.80;99.90
5027;DHT22;2532;52.480;13.354;2023-12-14T07:12:43;5.80;99.90
5027;DHT22;2532;52.480;13.354;2023-12-14T07:15:12;5.80;99.90
5027;DHT22;2532;52.480;13.354;2023-12-14T07:17:41;5.90;99.90
5027;DHT22;2532;52.480;13.354;2023-12-14T07:20:09;5.80;99.90
5027;DHT22;2532;52.480;13.354;2023-12-14T07:22:36;5.80;99.90
5027;DHT22;2532;52.480;13.354;2023-12-14T07:25:03;5.80;99.90
5027;DHT22;2532;52.480;13.354;2023-12-14T07:27:30;5.90;99.90
5027;DHT22;2532;52.480;13.354;2023-12-14T07:29:57;5.80;99.90
5027;DHT22;2532;52.480;13.354;2023-12-14T07:32:25;5.80;99.90
5027;DHT22;2532;52.480;13.354;2023-12-14T07:34:52;5.80;99.90
5027;DHT22;2532;52.480;13.354;2023-12-14T07:37:19;5.80;99.90
5027;DHT22;2532;52.480;13.354;2023-12-14T07:39:46;5.90;99.90
5027;DHT22;2532;52.480;13.354;2023-12-14T07:42:13;5.80;99.90
5027;DHT22;2532;52.480;13.354;2023-12-14T07:44:45;5.80;99.90
5027;DHT22;2532;52.480;13.354;2023-12-14T07:47:12;5.90;99.90
5027;DHT22;2532;52.480;13.354;2023-12-14T07:49:40;5.80;99.90
5027;DHT22;2532;52.480;13.354;2023-12-14T07:52:07;5.80;99.90
5027;DHT22;2532;52.480;13.354;2023-12-14T07:54:35;5.80;99.90
5027;DHT22;2532;52.480;13.354;2023-12-14T07:57:02;5.80;99.90
5027;DHT22;2532;52.480;13.354;2023-12-14T07:59:29;5.80;99.90
5027;DHT22;2532;52.480;13.354;2023-12-14T08:01:56;5.90;99.90
5027;DHT22;2532;52.480;13.354;2023-12-14T08:04:24;5.90;99.90
5027;DHT22;2532;52.480;13.354;2023-12-14T08:06:52;5.90;99.90
5027;DHT22;2532;52.480;13.354;2023-12-14T08:09:22;5.90;99.90
5027;DHT22;2532;52.480;13.354;2023-12-14T08:11:49;5.90;99.90
5027;DHT22;2532;52.480;13.354;2023-12-14T08:14:18;5.90;99.90
5027;DHT22;2532;52.480;13.354;2023-12-14T08:16:44;5.80;99.90
5027;DHT22;2532;52.480;13.354;2023-12-14T08:19:11;5.80;99.90
5027;DHT22;2532;52.480;13.354;2023-12-14T08:21:38;5.80;99.90
5027;DHT22;2532;52.480;13.354;2023-12-14T08:24:07;5.90;99.90
5027;DHT22;2532;52.480;13.354;2023-12-14T08:26:34;5.90;99.90
5027;DHT22;2532;52.480;13.354;2023-12-14T08:29:01;5.90;99.90
5027;DHT22;2532;52.480;13.354;2023-12-14T08:31:28;5.90;99.90
5027;DHT22;2532;52.480;13.354;2023-12-14T08:33:58;5.90;99.90
5027;DHT22;2532;52.480;13.354;2023-12-14T08:36:25;6.00;99.90
5027;DHT22;2532;52.480;13.354;2023-12-14T08:38:51;6.00;99.90
5027;DHT22;2532;52.480;13.354;2023-12-14T08:41:20;6.00;99.90
5027;DHT22;2532;52.480;13.354;2023-12-14T08:43:47;6.00;99.90
5027;DHT22;2532;52.480;13.354;2023-12-14T08:46:13;6.00;99.90
5027;DHT22;2532;52.480;13.354;2023-12-14T08:48:40;6.00;99.90
5027;DHT22;2532;52.480;13.354;2023-12-14T08:51:07;5.90;99.90
5027;DHT22;2532;52.480;13.354;2023-12-14T08:53:34;5.80;99.90
5027;DHT22;2532;52.480;13.354;2023-12-14T08:56:01;5.80;99.90
5027;DHT22;2532;52.480;13.354;2023-12-14T08:58:30;5.70;99.90
5027;DHT22;2532;52.480;13.354;2023-12-14T09:00:57;5.70;99.90
5027;DHT22;2532;52.480;13.354;2023-12-14T09:03:23;5.80;99.90
5027;DHT22;2532;52.480;13.354;2023-12-14T09:05:52;5.80;99.90
5027;DHT22;2532;52.480;13.354;2023-12-14T09:08:19;5.80;99.90
5027;DHT22;2532;52.480;13.354;2023-12-14T09:10:46;5.80;99.90
5027;DHT22;2532;52.480;13.354;2023-12-14T09:13:13;5.90;99.90
5027;DHT22;2532;52.480;13.354;2023-12-14T09:15:44;5.90;99.90
5027;DHT22;2532;52.480;13.354;2023-12-14T09:18:17;5.90;99.90
5027;DHT22;2532;52.480;13.354;2023-12-14T09:20:45;5.90;99.90
5027;DHT22;2532;52.480;13.354;2023-12-14T09:23:12;5.90;99.90
5027;DHT22;2532;52.480;13.354;2023-12-14T09:25:39;5.90;99.90
5027;DHT22;2532;52.480;13.354;2023-12-14T09:28:06;5.90;99.90
5027;DHT22;2532;52.480;13.354;2023-12-14T09:30:33;5.90;99.90
5027;DHT22;2532;52.480;13.354;2023-12-14T09:33:02;6.00;99.90
5027;DHT22;2532;52.480;13.354;2023-12-14T09:35:29;6.00;99.90
5027;DHT22;2532;52.480;13.354;2023-12-14T09:37:56;6.00;99.90
5027;DHT22;2532;52.480;13.354;2023-12-14T09:40:23;6.10;99.90
5027;DHT22;2532;52.480;13.354;2023-12-14T09:42:50;6.00;99.90
5027;DHT22;2532;52.480;13.354;2023-12-14T09:45:17;6.10;99.90
5027;DHT22;2532;52.480;13.354;2023-12-14T09:47:46;6.10;99.90
5027;DHT22;2532;52.480;13.354;2023-12-14T09:52:50;6.10;99.90
5027;DHT22;2532;52.480;13.354;2023-12-14T09:55:16;6.10;99.90
5027;DHT22;2532;52.480;13.354;2023-12-14T09:57:44;6.10;99.90
5027;DHT22;2532;52.480;13.354;2023-12-14T10:00:12;6.10;99.90
5027;DHT22;2532;52.480;13.354;2023-12-14T10:02:41;6.10;99.90
5027;DHT22;2532;52.480;13.354;2023-12-14T10:05:10;6.00;99.90
5027;DHT22;2532;52.480;13.354;2023-12-14T10:07:41;6.10;99.90
5027;DHT22;2532;52.480;13.354;2023-12-14T10:10:11;6.00;99.90
5027;DHT22;2532;52.480;13.354;2023-12-14T10:12:51;6.00;99.90
5027;DHT22;2532;52.480;13.354;2023-12-14T10:15:18;6.00;99.90
5027;DHT22;2532;52.480;13.354;2023-12-14T10:17:45;6.10;99.90
5027;DHT22;2532;52.480;13.354;2023-12-14T10:20:19;6.10;99.90
5027;DHT22;2532;52.480;13.354;2023-12-14T10:22:48;6.20;99.90
5027;DHT22;2532;52.480;13.354;2023-12-14T10:25:18;6.10;99.90
5027;DHT22;2532;52.480;13.354;2023-12-14T10:27:48;6.10;99.90
5027;DHT22;2532;52.480;13.354;2023-12-14T10:30:18;6.10;99.90
5027;DHT22;2532;52.480;13.354;2023-12-14T10:32:47;6.10;99.90
5027;DHT22;2532;52.480;13.354;2023-12-14T10:35:15;6.10;99.90
5027;DHT22;2532;52.480;13.354;2023-12-14T10:37:43;6.10;99.90
5027;DHT22;2532;52.480;13.354;2023-12-14T10:40:11;6.10;99.90
5027;DHT22;2532;52.480;13.354;2023-12-14T10:42:43;6.10;99.90
5027;DHT22;2532;52.480;13.354;2023-12-14T10:45:11;6.10;99.90
5027;DHT22;2532;52.480;13.354;2023-12-14T10:47:39;6.10;99.90
5027;DHT22;2532;52.480;13.354;2023-12-14T10:50:10;6.10;99.90
5027;DHT22;2532;52.480;13.354;2023-12-14T10:52:38;6.10;99.90
5027;DHT22;2532;52.480;13.354;2023-12-14T10:55:09;6.20;99.90
5027;DHT22;2532;52.480;13.354;2023-12-14T10:57:37;6.20;99.90
5027;DHT22;2532;52.480;13.354;2023-12-14T11:00:07;6.20;99.90
5027;DHT22;2532;52.480;13.354;2023-12-14T11:02:40;6.20;99.90
5027;DHT22;2532;52.480;13.354;2023-12-14T11:05:12;6.20;99.90
5027;DHT22;2532;52.480;13.354;2023-12-14T11:07:49;6.20;99.90
5027;DHT22;2532;52.480;13.354;2023-12-14T11:10:21;6.20;99.90
5027;DHT22;2532;52.480;13.354;2023-12-14T11:12:59;6.20;99.90
5027;DHT22;2532;52.480;13.354;2023-12-14T11:15:30;6.30;99.90
5027;DHT22;2532;52.480;13.354;2023-12-14T11:18:21;6.30;99.90
5027;DHT22;2532;52.480;13.354;2023-12-14T11:20:53;6.30;99.90
5027;DHT22;2532;52.480;13.354;2023-12-14T11:23:29;6.30;99.90
5027;DHT22;2532;52.480;13.354;2023-12-14T11:25:59;6.30;99.90
5027;DHT22;2532;52.480;13.354;2023-12-14T11:28:29;6.30;99.90
5027;DHT22;2532;52.480;13.354;2023-12-14T11:30:58;6.30;99.90
5027;DHT22;2532;52.480;13.354;2023-12-14T11:33:25;6.40;99.90
5027;DHT22;2532;52.480;13.354;2023-12-14T11:35:54;6.40;99.90
5027;DHT22;2532;52.480;13.354;2023-12-14T11:38:21;6.50;99.90
5027;DHT22;2532;52.480;13.354;2023-12-14T11:40:49;6.60;99.90
5027;DHT22;2532;52.480;13.354;2023-12-14T11:43:19;6.70;99.90
5027;DHT22;2532;52.480;13.354;2023-12-14T11:45:47;6.70;99.90
5027;DHT22;2532;52.480;13.354;2023-12-14T11:48:16;6.70;99.90
5027;DHT22;2532;52.480;13.354;2023-12-14T11:50:43;6.70;99.90
5027;DHT22;2532;52.480;13.354;2023-12-14T11:53:11;6.70;99.90
5027;DHT22;2532;52.480;13.354;2023-12-14T11:55:40;6.80;99.90
5027;DHT22;2532;52.480;13.354;2023-12-14T11:58:08;6.90;99.90
5027;DHT22;2532;52.480;13.354;2023-12-14T12:00:35;6.90;99.90
5027;DHT22;2532;52.480;13.354;2023-12-14T12:03:09;6.90;99.90
5027;DHT22;2532;52.480;13.354;2023-12-14T12:05:39;6.90;99.90
5027;DHT22;2532;52.480;13.354;2023-12-14T12:08:06;6.90;99.90
5027;DHT22;2532;52.480;13.354;2023-12-14T12:10:34;6.80;99.90
5027;DHT22;2532;52.480;13.354;2023-12-14T12:13:06;6.80;99.90
5027;DHT22;2532;52.480;13.354;2023-12-14T12:15:34;6.70;99.90
5027;DHT22;2532;52.480;13.354;2023-12-14T12:18:06;6.60;99.90
5027;DHT22;2532;52.480;13.354;2023-12-14T12:20:37;6.60;99.90
5027;DHT22;2532;52.480;13.354;2023-12-14T12:23:12;6.60;99.90
5027;DHT22;2532;52.480;13.354;2023-12-14T12:25:39;6.60;99.90
5027;DHT22;2532;52.480;13.354;2023-12-14T12:28:07;6.60;99.90
5027;DHT22;2532;52.480;13.354;2023-12-14T12:30:34;6.60;99.90
5027;DHT22;2532;52.480;13.354;2023-12-14T12:33:01;6.60;99.90
5027;DHT22;2532;52.480;13.354;2023-12-14T12:35:30;6.60;99.90
5027;DHT22;2532;52.480;13.354;2023-12-14T12:38:00;6.60;99.90
5027;DHT22;2532;52.480;13.354;2023-12-14T12:40:32;6.60;99.90
5027;DHT22;2532;52.480;13.354;2023-12-14T12:42:59;6.50;99.90
5027;DHT22;2532;52.480;13.354;2023-12-14T12:45:27;6.50;99.90
5027;DHT22;2532;52.480;13.354;2023-12-14T12:47:54;6.40;99.90
5027;DHT22;2532;52.480;13.354;2023-12-14T12:50:21;6.40;99.90
5027;DHT22;2532;52.480;13.354;2023-12-14T12:52:51;6.40;99.90
5027;DHT22;2532;52.480;13.354;2023-12-14T12:55:20;6.40;99.90
5027;DHT22;2532;52.480;13.354;2023-12-14T12:57:48;6.40;99.90
5027;DHT22;2532;52.480;13.354;2023-12-14T13:00:15;6.40;99.90
5027;DHT22;2532;52.480;13.354;2023-12-14T13:02:45;6.40;99.90
5027;DHT22;2532;52.480;13.354;2023-12-14T13:05:13;6.40;99.90
5027;DHT22;2532;52.480;13.354;2023-12-14T13:07:44;6.50;99.90
5027;DHT22;2532;52.480;13.354;2023-12-14T13:10:12;6.50;99.90
5027;DHT22;2532;52.480;13.354;2023-12-14T13:12:41;6.50;99.90
5027;DHT22;2532;52.480;13.354;2023-12-14T13:15:09;6.60;99.90
5027;DHT22;2532;52.480;13.354;2023-12-14T13:17:36;6.50;99.90
5027;DHT22;2532;52.480;13.354;2023-12-14T13:20:05;6.60;99.90
5027;DHT22;2532;52.480;13.354;2023-12-14T13:22:32;6.50;99.90
5027;DHT22;2532;52.480;13.354;2023-12-14T13:25:04;6.50;99.90
5027;DHT22;2532;52.480;13.354;2023-12-14T13:27:31;6.50;99.90
5027;DHT22;2532;52.480;13.354;2023-12-14T13:30:00;6.50;99.90
5027;DHT22;2532;52.480;13.354;2023-12-14T13:32:27;6.50;99.90
5027;DHT22;2532;52.480;13.354;2023-12-14T13:34:54;6.50;99.90
5027;DHT22;2532;52.480;13.354;2023-12-14T13:37:21;6.40;99.90
5027;DHT22;2532;52.480;13.354;2023-12-14T13:39:48;6.40;99.90
5027;DHT22;2532;52.480;13.354;2023-12-14T13:42:18;6.40;99.90
5027;DHT22;2532;52.480;13.354;2023-12-14T13:44:48;6.40;99.90
5027;DHT22;2532;52.480;13.354;2023-12-14T13:47:16;6.40;99.90
5027;DHT22;2532;52.480;13.354;2023-12-14T13:49:43;6.40;99.90
5027;DHT22;2532;52.480;13.354;2023-12-14T13:52:10;6.40;99.90
5027;DHT22;2532;52.480;13.354;2023-12-14T13:54:37;6.40;99.90
5027;DHT22;2532;52.480;13.354;2023-12-14T13:57:04;6.30;99.90
5027;DHT22;2532;52.480;13.354;2023-12-14T13:59:34;6.30;99.90
5027;DHT22;2532;52.480;13.354;2023-12-14T14:02:03;6.20;99.90
5027;DHT22;2532;52.480;13.354;2023-12-14T14:04:32;6.20;99.90
5027;DHT22;2532;52.480;13.354;2023-12-14T14:06:59;6.10;99.90
5027;DHT22;2532;52.480;13.354;2023-12-14T14:09:26;6.00;99.90
5027;DHT22;2532;52.480;13.354;2023-12-14T14:11:54;6.00;99.90
5027;DHT22;2532;52.480;13.354;2023-12-14T14:14:21;6.00;99.90
5027;DHT22;2532;52.480;13.354;2023-12-14T14:16:51;6.00;99.90
5027;DHT22;2532;52.480;13.354;2023-12-14T14:19:22;6.00;99.90
5027;DHT22;2532;52.480;13.354;2023-12-14T14:21:51;6.10;99.90
5027;DHT22;2532;52.480;13.354;2023-12-14T14:24:18;6.00;99.90
5027;DHT22;2532;52.480;13.354;2023-12-14T14:26:45;6.00;99.90
5027;DHT22;2532;52.480;13.354;2023-12-14T14:29:12;6.00;99.90
5027;DHT22;2532;52.480;13.354;2023-12-14T14:31:39;6.00;99.90
5027;DHT22;2532;52.480;13.354;2023-12-14T14:34:06;5.90;99.90
5027;DHT22;2532;52.480;13.354;2023-12-14T14:36:33;6.00;99.90
5027;DHT22;2532;52.480;13.354;2023-12-14T14:39:02;5.90;99.90
5027;DHT22;2532;52.480;13.354;2023-12-14T14:41:30;5.90;99.90
5027;DHT22;2532;52.480;13.354;2023-12-14T14:43:57;5.90;99.90
5027;DHT22;2532;52.480;13.354;2023-12-14T14:46:26;5.90;99.90
5027;DHT22;2532;52.480;13.354;2023-12-14T14:48:53;6.00;99.90
5027;DHT22;2532;52.480;13.354;2023-12-14T14:51:20;6.00;99.90
5027;DHT22;2532;52.480;13.354;2023-12-14T14:53:47;6.00;99.90
5027;DHT22;2532;52.480;13.354;2023-12-14T14:56:16;6.00;99.90
5027;DHT22;2532;52.480;13.354;2023-12-14T14:58:43;5.90;99.90
5027;DHT22;2532;52.480;13.354;2023-12-14T15:01:11;5.90;99.90
5027;DHT22;2532;52.480;13.354;2023-12-14T15:03:38;5.90;99.90
5027;DHT22;2532;52.480;13.354;2023-12-14T15:06:05;5.90;99.90
5027;DHT22;2532;52.480;13.354;2023-12-14T15:08:33;5.90;99.90
5027;DHT22;2532;52.480;13.354;2023-12-14T15:10:59;6.00;99.90
5027;DHT22;2532;52.480;13.354;2023-12-14T15:13:28;6.00;99.90
5027;DHT22;2532;52.480;13.354;2023-12-14T15:15:55;6.00;99.90
5027;DHT22;2532;52.480;13.354;2023-12-14T15:18:22;6.00;99.90
5027;DHT22;2532;52.480;13.354;2023-12-14T15:20:49;6.00;99.90
5027;DHT22;2532;52.480;13.354;2023-12-14T15:23:18;6.00;99.90
5027;DHT22;2532;52.480;13.354;2023-12-14T15:25:45;6.10;99.90
5027;DHT22;2532;52.480;13.354;2023-12-14T15:28:12;6.10;99.90
5027;DHT22;2532;52.480;13.354;2023-12-14T15:30:41;6.10;99.90
5027;DHT22;2532;52.480;13.354;2023-12-14T15:33:11;6.10;99.90
5027;DHT22;2532;52.480;13.354;2023-12-14T15:35:38;6.10;99.90
5027;DHT22;2532;52.480;13.354;2023-12-14T15:38:05;6.10;99.90
5027;DHT22;2532;52.480;13.354;2023-12-14T15:40:32;6.10;99.90
5027;DHT22;2532;52.480;13.354;2023-12-14T15:42:59;6.20;99.90
5027;DHT22;2532;52.480;13.354;2023-12-14T15:45:26;6.20;99.90
5027;DHT22;2532;52.480;13.354;2023-12-14T15:48:02;6.20;99.90
5027;DHT22;2532;52.480;13.354;2023-12-14T15:53:03;6.20;99.90
5027;DHT22;2532;52.480;13.354;2023-12-14T15:55:30;6.30;99.90
5027;DHT22;2532;52.480;13.354;2023-12-14T15:57:58;6.20;99.90
5027;DHT22;2532;52.480;13.354;2023-12-14T16:00:25;6.30;99.90
5027;DHT22;2532;52.480;13.354;2023-12-14T16:02:51;6.30;99.90
5027;DHT22;2532;52.480;13.354;2023-12-14T16:05:20;6.40;99.90
5027;DHT22;2532;52.480;13.354;2023-12-14T16:07:47;6.30;99.90
5027;DHT22;2532;52.480;13.354;2023-12-14T16:10:14;6.30;99.90
5027;DHT22;2532;52.480;13.354;2023-12-14T16:12:42;6.30;99.90